LFSL

Toul Rosières Air Base

Airport
ICAO code
LFSL
IATA Code
BVE
Summary
ICAO Region
EUR
ICAO Territory
Location

, Lorraine

Serving
Brive
Elevation
936 ft
Coordinates
45° 9' 3" N , 1° 28' 9" E
Metar
Observation
LFSL 171030Z AUTO 32004KT 240V360 9999 SCT024 SCT031 OVC056 22/16 Q1012 TEMPO 4000 SHRA BKN035TCU
Station
Toul / Rosieres
Date/Time
2022-08-17 10:30:00
Wind direction
320°
Wind speed
04 kts
Lowest cloud amount
scattered clouds
Temperature
22°C
Dew point
16°C
Humidity
68%
QNH
1012 hPa
Weather condition
n/a

Airport map

Aerial View

SKYbrary Partners:

Safety knowledge contributed by: